< < Back
Terminal Aerodrome Forecast


Current Version              Previous Versions:   1  2  3  4  5  6  7  8  9  

Terminal Aerodrome Forecast

256
FTUS44 KOHX 311100
TAFCSV
TAF
KCSV 311133Z 3112/0112 00000KT 5SM BR FEW020 BKN250
     FM311400 17004KT P6SM SCT050 BKN200
     FM010700 VRB02KT 2SM BR VCSH BKN200=

Latest METAR

256
SAUS70 KWBC 010000 RRK
MTRCSV
METAR KCSV 312353Z AUTO 11003KT 10SM OVC044 23/16 A3012 RMK AO2 SLP185
T02330156 10261 20233 55000


USA.gov is the U.S. government's official web portal to all federal, state and local government web resources and services.